Time;durP1;ratioP1;P1;durP2;ratioP2;P2;SDS_P1;SDS_P2;PMS_P1;PMS_P2;Temp;Humidity;BMP_temperature;BMP_pressure;BME280_temperature;BME280_humidity;BME280_pressure;Samples;Min_cycle;Max_cycle;Signal;HPM_P1;HPM_P2
2021/07/11 00:00:01;;;;;;;2.53;0.77;;;;;;;25.32;39.93;99698.09;4347043;33;34853;-90
2021/07/11 00:02:32;;;;;;;2.20;0.82;;;;;;;25.26;39.84;99702.94;4334965;33;33187;-90
2021/07/11 00:05:02;;;;;;;1.27;0.68;;;;;;;25.21;40.04;99692.59;4311577;33;34017;-90
2021/07/11 00:07:30;;;;;;;3.17;1.10;;;;;;;25.27;40.21;99691.38;4323050;33;34499;-90
2021/07/11 00:09:58;;;;;;;2.00;0.73;;;;;;;25.17;40.29;99692.88;4346879;33;34175;-90
2021/07/11 00:12:27;;;;;;;0.80;0.70;;;;;;;25.13;40.49;99694.00;4334747;33;32987;-90
2021/07/11 00:14:55;;;;;;;2.15;1.00;;;;;;;25.20;41.04;99692.69;4310625;33;33412;-90
2021/07/11 00:17:23;;;;;;;0.80;0.80;;;;;;;25.14;41.00;99682.41;4322478;33;34099;-90
2021/07/11 00:19:51;;;;;;;1.05;0.70;;;;;;;25.08;41.39;99690.78;4346872;33;34874;-90
2021/07/11 00:22:19;;;;;;;1.17;0.70;;;;;;;25.02;41.27;99691.13;4322751;33;33645;-90
2021/07/11 00:24:47;;;;;;;2.42;0.82;;;;;;;24.96;41.70;99680.87;4322406;33;34347;-89
2021/07/11 00:27:16;;;;;;;1.00;0.80;;;;;;;24.90;41.87;99676.78;4334495;33;33967;-90
2021/07/11 00:29:43;;;;;;;0.98;0.73;;;;;;;24.89;41.96;99670.59;4334567;33;34254;-90
2021/07/11 00:32:11;;;;;;;1.30;0.77;;;;;;;24.86;41.95;99670.78;4348055;33;33736;-90
2021/07/11 00:34:40;;;;;;;1.50;0.80;;;;;;;24.83;42.04;99670.12;4322538;33;34615;-90
2021/07/11 00:37:07;;;;;;;1.52;0.70;;;;;;;24.78;42.29;99664.22;4322364;33;34834;-90
2021/07/11 00:39:35;;;;;;;2.30;0.80;;;;;;;24.74;42.31;99666.19;4346626;33;34244;-90
2021/07/11 00:42:04;;;;;;;1.30;0.70;;;;;;;24.84;42.33;99670.00;4310784;33;33936;-90
2021/07/11 00:44:32;;;;;;;1.12;0.88;;;;;;;24.85;42.59;99663.75;4334574;33;34012;-90
2021/07/11 00:47:01;;;;;;;1.83;0.77;;;;;;;24.75;42.65;99662.56;4334676;33;34370;-90
2021/07/11 00:49:29;;;;;;;1.20;0.80;;;;;;;24.69;42.67;99662.94;4334732;33;33401;-90
2021/07/11 00:51:58;;;;;;;1.42;0.73;;;;;;;24.74;42.66;99665.31;4334859;33;34210;-89
2021/07/11 00:54:26;;;;;;;1.00;0.60;;;;;;;24.81;42.66;99654.25;4346446;33;34819;-90
2021/07/11 00:56:55;;;;;;;1.35;0.70;;;;;;;24.80;42.63;99655.19;4322388;33;34581;-90
2021/07/11 00:59:23;;;;;;;2.50;1.15;;;;;;;24.72;42.67;99657.41;4334318;33;34954;-89
2021/07/11 01:02:03;;;;;;;0.90;0.52;;;;;;;24.70;42.81;99658.47;4322215;33;33772;-90
2021/07/11 01:04:39;;;;;;;1.70;1.05;;;;;;;24.59;42.84;99656.47;4310748;33;33481;-90
2021/07/11 01:07:09;;;;;;;2.00;1.20;;;;;;;24.60;42.91;99652.00;4335051;33;35553;-89
2021/07/11 01:09:42;;;;;;;0.93;0.73;;;;;;;24.71;43.13;99650.41;4311311;33;33472;-90
2021/07/11 01:12:25;;;;;;;2.87;0.70;;;;;;;24.57;43.39;99644.19;4323000;33;33874;-89
2021/07/11 01:14:55;;;;;;;2.47;0.98;;;;;;;24.69;43.28;99652.31;4310054;33;34458;-89
2021/07/11 01:17:25;;;;;;;1.23;0.98;;;;;;;24.43;43.71;99642.37;4334269;33;35434;-89
2021/07/11 01:20:24;;;;;;;1.23;0.77;;;;;;;24.63;43.29;99642.03;4322371;33;33451;-90
2021/07/11 01:22:54;;;;;;;0.70;0.68;;;;;;;24.43;44.03;99639.72;4334086;33;34098;-90
2021/07/11 01:25:43;;;;;;;1.58;0.68;;;;;;;24.56;43.36;99632.69;4322174;33;33579;-90
2021/07/11 01:28:17;;;;;;;1.40;0.90;;;;;;;24.61;43.25;99648.38;4334674;33;34700;-89
2021/07/11 01:30:48;;;;;;;2.22;0.68;;;;;;;24.50;43.47;99645.50;4322591;33;33981;-90
2021/07/11 01:33:18;;;;;;;1.65;0.80;;;;;;;24.41;43.26;99641.59;4310252;33;32942;-90
2021/07/11 01:35:47;;;;;;;2.28;0.82;;;;;;;24.41;43.44;99633.63;4310008;33;33497;-90
2021/07/11 01:38:17;;;;;;;1.55;0.80;;;;;;;24.38;43.67;99646.22;4347512;33;35552;-90
2021/07/11 01:40:48;;;;;;;1.30;0.62;;;;;;;24.44;43.60;99640.56;4322353;33;33977;-90
2021/07/11 01:43:18;;;;;;;2.20;0.55;;;;;;;24.34;43.86;99642.91;4310235;33;32844;-90
2021/07/11 01:45:47;;;;;;;2.75;0.62;;;;;;;24.25;44.03;99638.09;4322076;33;33587;-90
2021/07/11 01:48:17;;;;;;;2.17;0.75;;;;;;;24.40;43.56;99633.69;4334482;33;34347;-90
2021/07/11 01:50:50;;;;;;;0.98;0.55;;;;;;;24.53;43.55;99640.84;4334376;33;34264;-90
2021/07/11 01:53:27;;;;;;;2.20;0.80;;;;;;;24.48;44.14;99647.41;4333961;33;33585;-90
2021/07/11 01:55:56;;;;;;;1.62;0.80;;;;;;;24.42;43.73;99637.97;4313971;33;33417;-90
2021/07/11 01:58:25;;;;;;;1.67;0.50;;;;;;;24.53;44.21;99638.19;4319861;33;35137;-90
2021/07/11 02:00:54;;;;;;;0.98;0.65;;;;;;;24.45;44.00;99632.50;4334412;33;34034;-90
2021/07/11 02:03:25;;;;;;;1.15;0.55;;;;;;;24.54;43.61;99639.91;4321994;33;33524;-89
2021/07/11 02:05:54;;;;;;;1.52;0.60;;;;;;;24.50;43.80;99635.75;4321970;33;34271;-90
2021/07/11 02:08:22;;;;;;;1.05;0.95;;;;;;;24.57;43.95;99637.09;4332564;33;34113;-89
2021/07/11 02:10:52;;;;;;;1.75;0.68;;;;;;;24.53;44.22;99635.53;4334177;33;33579;-90
2021/07/11 02:13:29;;;;;;;1.02;0.80;;;;;;;24.57;44.36;99641.53;4322005;33;33060;-89
2021/07/11 02:16:06;;;;;;;1.10;0.70;;;;;;;24.40;44.50;99634.56;4322202;33;34020;-89
2021/07/11 02:18:38;;;;;;;1.30;0.70;;;;;;;24.49;44.35;99639.34;4345897;33;34727;-89
2021/07/11 02:21:09;;;;;;;2.08;0.80;;;;;;;24.43;45.04;99637.06;4322987;33;34245;-89
2021/07/11 02:23:40;;;;;;;1.25;0.75;;;;;;;24.50;44.42;99641.06;4321763;33;32975;-89
2021/07/11 02:26:08;;;;;;;0.90;0.57;;;;;;;24.63;44.29;99634.03;4321844;33;34747;-89
2021/07/11 02:28:37;;;;;;;1.48;0.68;;;;;;;24.63;44.15;99631.38;4309923;33;34501;-90
2021/07/11 02:31:11;;;;;;;1.48;0.70;;;;;;;24.71;43.89;99634.44;4333798;33;33815;-89
2021/07/11 02:33:42;;;;;;;1.40;0.70;;;;;;;24.73;44.05;99643.19;4321521;33;33608;-89
2021/07/11 02:36:11;;;;;;;2.60;0.93;;;;;;;24.68;43.99;99644.41;4321591;33;34138;-89
2021/07/11 02:38:44;;;;;;;2.42;1.10;;;;;;;24.78;43.58;99646.47;4346922;33;34923;-89
2021/07/11 02:41:14;;;;;;;3.03;0.70;;;;;;;24.76;43.78;99647.47;4333616;33;34935;-89
2021/07/11 02:43:44;;;;;;;1.15;0.80;;;;;;;24.76;44.00;99647.47;4321765;33;33824;-89
2021/07/11 02:46:17;;;;;;;1.37;0.90;;;;;;;24.85;43.73;99646.94;4321495;33;34858;-90
2021/07/11 02:48:47;;;;;;;1.48;0.85;;;;;;;24.87;43.74;99648.56;4333821;33;35450;-89
2021/07/11 02:51:17;;;;;;;1.85;0.88;;;;;;;24.83;43.88;99655.03;4333617;33;35014;-89
2021/07/11 02:53:47;;;;;;;1.27;0.80;;;;;;;24.87;43.96;99656.53;4321210;33;33655;-90
2021/07/11 02:56:17;;;;;;;2.97;0.57;;;;;;;24.93;43.69;99649.13;4333100;33;33747;-89
2021/07/11 02:58:49;;;;;;;1.67;1.00;;;;;;;25.02;43.57;99659.22;4309625;33;34202;-89
2021/07/11 03:01:17;;;;;;;3.75;1.50;;;;;;;25.01;43.49;99654.84;4321211;33;33411;-90
2021/07/11 03:03:49;;;;;;;3.40;1.27;;;;;;;25.02;43.51;99653.88;4321592;33;34365;-90
2021/07/11 03:06:17;;;;;;;2.62;1.02;;;;;;;25.03;43.58;99655.63;4333183;33;33802;-90
2021/07/11 03:08:45;;;;;;;2.53;1.45;;;;;;;25.15;43.98;99653.03;4309489;33;34191;-90
2021/07/11 03:11:20;;;;;;;4.47;2.40;;;;;;;25.18;44.24;99658.16;4322768;33;34547;-89
2021/07/11 03:13:48;;;;;;;5.35;2.78;;;;;;;25.26;44.77;99666.53;4333160;33;33508;-89
2021/07/11 03:16:19;;;;;;;4.22;2.30;;;;;;;25.32;45.39;99665.28;4308823;33;34194;-89
2021/07/11 03:18:50;;;;;;;7.80;3.00;;;;;;;25.41;45.69;99664.75;4309715;33;33879;-89
2021/07/11 03:21:22;;;;;;;8.02;3.30;;;;;;;25.49;46.02;99654.47;4335054;33;34177;-89
2021/07/11 03:23:52;;;;;;;5.22;3.10;;;;;;;25.56;46.75;99661.12;4329866;33;33465;-89
2021/07/11 03:26:21;;;;;;;4.80;3.80;;;;;;;25.64;47.08;99663.31;4323355;33;34129;-89
2021/07/11 03:28:51;;;;;;;5.45;3.70;;;;;;;25.61;47.61;99664.34;4329404;33;34165;-89
2021/07/11 03:31:20;;;;;;;5.30;3.75;;;;;;;25.74;47.68;99654.62;4322734;33;33615;-89
2021/07/11 03:33:52;;;;;;;10.05;4.50;;;;;;;25.66;48.70;99662.25;4316960;33;34159;-89
2021/07/11 03:36:20;;;;;;;;;;;;;;;25.72;49.01;99661.84;4323269;33;33438;-89
2021/07/11 03:38:54;;;;;;;8.05;4.05;;;;;;;25.71;49.22;99662.81;4317387;33;34904;-90
2021/07/11 03:41:26;;;;;;;4.85;4.32;;;;;;;25.72;49.39;99666.34;4348545;33;34317;-89
2021/07/11 03:43:56;;;;;;;7.22;4.50;;;;;;;25.84;49.34;99655.72;4302756;33;33660;-89
2021/07/11 03:46:30;;;;;;;6.65;4.43;;;;;;;25.76;50.07;99663.38;4309647;33;34228;-89
2021/07/11 03:49:00;;;;;;;5.20;4.30;;;;;;;25.95;49.77;99673.69;4310704;33;34898;-89
2021/07/11 03:51:31;;;;;;;5.30;4.80;;;;;;;25.95;49.87;99657.72;4310670;33;33779;-90
2021/07/11 03:54:00;;;;;;;6.28;5.05;;;;;;;25.94;50.29;99671.97;4322651;33;33296;-90
2021/07/11 03:56:30;;;;;;;7.32;4.75;;;;;;;26.03;50.13;99661.56;4322679;33;34816;-89
2021/07/11 03:58:59;;;;;;;5.95;4.47;;;;;;;26.12;50.09;99654.84;4310694;33;33896;-88
2021/07/11 04:01:33;;;;;;;6.07;4.37;;;;;;;26.29;49.97;99661.72;4322790;33;34434;-90
2021/07/11 04:04:04;;;;;;;7.90;5.10;;;;;;;26.06;50.76;99645.38;4310811;33;32970;-89
2021/07/11 04:06:32;;;;;;;7.47;5.00;;;;;;;26.12;50.98;99642.37;4323248;33;33293;-90
2021/07/11 04:09:02;;;;;;;7.25;5.18;;;;;;;25.81;52.17;99639.97;4322535;33;35180;-90
2021/07/11 04:11:34;;;;;;;10.52;6.07;;;;;;;26.11;51.42;99651.31;4334457;33;33659;-89
2021/07/11 04:14:03;;;;;;;7.00;5.70;;;;;;;26.18;51.26;99654.41;4334680;33;33737;-88
2021/07/11 04:16:32;;;;;;;6.70;5.93;;;;;;;26.02;52.01;99653.69;4322505;33;34083;-89
2021/07/11 04:19:01;;;;;;;11.65;6.25;;;;;;;26.06;51.90;99653.38;4334678;33;34589;-89
2021/07/11 04:21:31;;;;;;;6.18;5.57;;;;;;;26.24;51.46;99651.34;4322663;33;33284;-89
2021/07/11 04:24:02;;;;;;;7.15;5.85;;;;;;;26.38;51.39;99656.63;4334517;33;33572;-89
2021/07/11 04:26:34;;;;;;;6.95;5.60;;;;;;;26.19;51.98;99659.66;4334781;33;33643;-89
2021/07/11 04:29:02;;;;;;;8.40;6.20;;;;;;;26.27;51.72;99664.47;4310598;33;34367;-88
2021/07/11 04:31:30;;;;;;;8.63;5.80;;;;;;;26.34;51.67;99657.75;4334131;33;35023;-89
2021/07/11 04:34:12;;;;;;;6.95;5.72;;;;;;;26.25;52.35;99657.53;4322390;33;33324;-89
2021/07/11 04:36:40;;;;;;;7.03;6.30;;;;;;;26.38;52.07;99653.09;4334630;33;34036;-89
2021/07/11 04:39:08;;;;;;;6.97;6.28;;;;;;;26.25;52.36;99662.84;4334385;33;34682;-92
2021/07/11 04:41:38;;;;;;;9.73;6.05;;;;;;;26.26;52.38;99662.78;4334358;33;34780;-90
2021/07/11 04:44:06;;;;;;;8.07;6.18;;;;;;;26.18;52.80;99649.94;4322388;33;33093;-88
2021/07/11 04:46:34;;;;;;;8.57;6.55;;;;;;;26.15;52.86;99660.81;4334325;33;34268;-89
2021/07/11 04:49:02;;;;;;;7.85;6.47;;;;;;;26.26;52.86;99672.56;4346583;33;34437;-89
2021/07/11 04:51:31;;;;;;;13.68;6.82;;;;;;;26.34;52.57;99672.94;4346860;33;34829;-88
2021/07/11 04:53:59;;;;;;;8.13;5.85;;;;;;;26.46;52.42;99669.44;4334173;33;33566;-90
2021/07/11 04:56:27;;;;;;;10.43;6.53;;;;;;;26.23;53.16;99676.28;4322162;33;34545;-90
2021/07/11 04:58:56;;;;;;;7.50;6.57;;;;;;;26.32;53.23;99677.47;4334509;33;34697;-89
2021/07/11 05:01:25;;;;;;;9.60;7.55;;;;;;;26.27;53.23;99680.47;4310259;33;33877;-88
2021/07/11 05:03:53;;;;;;;7.70;6.90;;;;;;;26.36;53.03;99684.34;4310529;33;33483;-88
2021/07/11 05:06:21;;;;;;;8.75;7.82;;;;;;;26.05;53.99;99680.97;4346830;33;34021;-88
2021/07/11 05:08:53;;;;;;;12.00;7.43;;;;;;;26.10;54.03;99681.56;4323231;33;33970;-91
2021/07/11 05:11:21;;;;;;;9.80;7.60;;;;;;;26.08;54.19;99687.91;4322773;33;33824;-90
2021/07/11 05:13:49;;;;;;;9.73;7.40;;;;;;;26.45;53.07;99673.06;4341812;33;34204;-89
2021/07/11 05:16:17;;;;;;;9.63;7.43;;;;;;;26.40;53.37;99683.16;4333342;33;34102;-90
2021/07/11 05:18:45;;;;;;;5.97;5.05;;;;;;;26.26;53.84;99681.44;4334459;33;34680;-91
2021/07/11 05:21:14;;;;;;;9.23;6.90;;;;;;;26.02;52.55;99683.88;4312117;33;33889;-91
2021/07/11 05:23:41;;;;;;;14.73;7.87;;;;;;;26.24;52.52;99687.81;4322746;33;34231;-88
2021/07/11 05:26:10;;;;;;;11.80;7.53;;;;;;;26.77;52.09;99691.28;4334398;33;33959;-87
2021/07/11 05:28:39;;;;;;;10.73;7.18;;;;;;;26.82;52.15;99702.50;4346643;33;34638;-91
2021/07/11 05:31:08;;;;;;;8.02;7.32;;;;;;;26.69;52.54;99692.75;4334304;33;33638;-89
2021/07/11 05:33:36;;;;;;;8.50;7.53;;;;;;;26.92;51.93;99694.72;4322030;33;33449;-89
2021/07/11 05:36:05;;;;;;;10.18;7.80;;;;;;;26.97;51.69;99700.59;4347457;33;34711;-88
2021/07/11 05:38:34;;;;;;;10.10;7.25;;;;;;;26.63;52.49;99699.34;4334056;33;34096;-89
2021/07/11 05:41:02;;;;;;;9.80;7.80;;;;;;;26.83;51.98;99706.91;4310343;33;34291;-88
2021/07/11 05:43:30;;;;;;;10.35;8.27;;;;;;;27.06;51.56;99702.63;4334261;33;33564;-88
2021/07/11 05:45:58;;;;;;;9.07;7.50;;;;;;;27.02;51.48;99695.81;4321905;33;33657;-89
2021/07/11 05:48:27;;;;;;;8.60;7.70;;;;;;;26.99;51.56;99698.69;4321862;33;33793;-89
2021/07/11 05:50:55;;;;;;;7.93;6.95;;;;;;;27.01;51.27;99699.44;4322230;33;34411;-88
2021/07/11 05:53:22;;;;;;;9.02;6.90;;;;;;;26.91;51.54;99701.00;4347592;33;33344;-86
2021/07/11 05:55:51;;;;;;;9.77;7.10;;;;;;;26.83;51.00;99700.69;4333684;33;34672;-90
2021/07/11 05:58:19;;;;;;;11.65;7.80;;;;;;;26.75;51.92;99711.87;4334487;33;34522;-88
2021/07/11 06:00:47;;;;;;;7.43;6.57;;;;;;;26.93;51.29;99717.81;4347926;33;34455;-89
2021/07/11 06:03:15;;;;;;;8.02;7.12;;;;;;;26.95;51.12;99712.34;4346265;33;33040;-88
2021/07/11 06:05:43;;;;;;;8.18;7.32;;;;;;;27.20;50.62;99720.34;4322045;33;34003;-90
2021/07/11 06:08:11;;;;;;;8.82;6.25;;;;;;;27.21;50.64;99722.06;4347664;33;35436;-90
2021/07/11 06:10:39;;;;;;;7.62;6.80;;;;;;;27.31;50.42;99716.00;4321833;33;33353;-90
2021/07/11 06:13:07;;;;;;;8.57;6.87;;;;;;;27.36;50.29;99710.34;4333947;33;33523;-90
2021/07/11 06:15:34;;;;;;;9.25;6.50;;;;;;;27.49;50.03;99717.41;4321823;33;34744;-90
2021/07/11 06:18:03;;;;;;;9.52;7.10;;;;;;;27.73;49.64;99708.59;4333889;33;35452;-89
2021/07/11 06:20:34;;;;;;;7.87;7.07;;;;;;;27.53;49.53;99707.34;4333769;33;33450;-90
2021/07/11 06:23:02;;;;;;;8.05;6.10;;;;;;;27.04;50.51;99709.91;4346248;33;33959;-89
2021/07/11 06:25:30;;;;;;;7.30;6.47;;;;;;;27.38;49.90;99709.31;4321889;33;34534;-88
2021/07/11 06:27:57;;;;;;;9.75;7.05;;;;;;;27.53;49.41;99716.22;4333917;33;35454;-90
2021/07/11 06:30:25;;;;;;;7.37;6.37;;;;;;;27.69;48.81;99713.31;4346072;33;34283;-89
2021/07/11 06:32:53;;;;;;;7.40;6.40;;;;;;;27.37;49.69;99718.25;4321783;33;33247;-90
2021/07/11 06:35:23;;;;;;;7.62;5.90;;;;;;;27.80;49.18;99710.72;4347025;33;34019;-90
2021/07/11 06:37:51;;;;;;;8.75;6.35;;;;;;;27.67;48.68;99715.22;4328278;33;34920;-89
2021/07/11 06:40:24;;;;;;;8.60;6.10;;;;;;;28.03;48.47;99711.75;4322025;33;34273;-88
2021/07/11 06:42:52;;;;;;;9.10;7.00;;;;;;;27.97;48.25;99720.19;4301546;33;33666;-90
2021/07/11 06:45:20;;;;;;;6.87;6.15;;;;;;;28.22;47.82;99712.09;4318783;33;33448;-90
2021/07/11 06:47:48;;;;;;;11.50;6.25;;;;;;;28.60;47.37;99718.16;4321302;33;33906;-89
2021/07/11 06:50:17;;;;;;;8.30;6.85;;;;;;;28.33;47.54;99720.22;4333395;33;34298;-89
2021/07/11 06:52:48;;;;;;;9.10;6.80;;;;;;;28.55;46.86;99720.28;4332952;33;33932;-89
2021/07/11 06:55:15;;;;;;;6.40;5.53;;;;;;;28.84;46.50;99718.97;4322417;33;33444;-92
2021/07/11 06:57:44;;;;;;;9.10;5.82;;;;;;;28.97;46.08;99726.06;4323266;33;34967;-89
2021/07/11 07:00:13;;;;;;;12.55;6.55;;;;;;;29.17;45.80;99712.84;4335283;33;33619;-90
2021/07/11 07:02:41;;;;;;;7.97;5.93;;;;;;;29.13;45.74;99714.06;4322921;33;33607;-90
2021/07/11 07:05:11;;;;;;;7.45;5.57;;;;;;;29.27;45.32;99707.66;4335682;33;34797;-89
2021/07/11 07:07:39;;;;;;;10.63;5.80;;;;;;;29.61;44.61;99706.69;4323192;33;35075;-88
2021/07/11 07:10:10;;;;;;;6.95;5.72;;;;;;;29.35;45.18;99713.25;4334682;33;33967;-89
2021/07/11 07:12:37;;;;;;;7.18;5.47;;;;;;;29.45;44.30;99709.72;4323199;33;34421;-92
2021/07/11 07:15:06;;;;;;;8.07;5.78;;;;;;;29.31;44.76;99703.78;4348643;33;34747;-88
2021/07/11 07:17:34;;;;;;;8.02;6.00;;;;;;;29.76;43.65;99713.56;4347252;33;34435;-89
2021/07/11 07:20:06;;;;;;;6.97;5.72;;;;;;;29.82;43.74;99713.03;4322816;33;33862;-90
2021/07/11 07:22:35;;;;;;;7.45;6.28;;;;;;;29.80;43.52;99715.00;4335100;33;33838;-91
2021/07/11 07:25:10;;;;;;;8.70;5.60;;;;;;;29.95;43.30;99715.59;4335437;33;33488;-90
2021/07/11 07:27:41;;;;;;;10.68;5.37;;;;;;;30.13;43.57;99716.78;4335595;33;34548;-90
2021/07/11 07:30:10;;;;;;;9.18;5.65;;;;;;;30.14;43.33;99722.00;4323014;33;34125;-90
2021/07/11 07:32:39;;;;;;;9.45;5.35;;;;;;;30.13;41.97;99717.63;4323291;33;33237;-90
2021/07/11 07:35:08;;;;;;;6.53;5.70;;;;;;;30.42;42.08;99719.78;4324102;33;34518;-92
2021/07/11 07:37:36;;;;;;;6.62;5.55;;;;;;;30.62;41.92;99717.13;4311968;33;34689;-91
2021/07/11 07:40:08;;;;;;;5.78;5.15;;;;;;;30.66;41.98;99720.41;4335658;33;33982;-91
2021/07/11 07:42:36;;;;;;;6.47;4.87;;;;;;;30.96;41.06;99725.03;4352058;33;34485;-92
2021/07/11 07:45:05;;;;;;;6.15;5.55;;;;;;;30.81;40.83;99721.78;4325065;33;33151;-92
2021/07/11 07:47:35;;;;;;;6.45;4.90;;;;;;;31.00;40.83;99726.50;4324990;33;35021;-94
2021/07/11 07:50:28;;;;;;;7.82;5.50;;;;;;;31.17;40.27;99728.56;4340064;32;34331;-93
2021/07/11 07:52:56;;;;;;;7.50;5.43;;;;;;;31.23;39.66;99730.75;4348410;33;32954;-91
2021/07/11 07:55:24;;;;;;;5.70;4.90;;;;;;;30.95;39.68;99729.56;4347436;33;34100;-87
2021/07/11 07:57:52;;;;;;;7.87;5.20;;;;;;;31.04;39.42;99727.94;4334572;33;34096;-88
2021/07/11 08:00:20;;;;;;;7.00;4.85;;;;;;;30.82;39.24;99728.88;4335456;33;34523;-90
2021/07/11 08:02:48;;;;;;;6.82;5.12;;;;;;;31.15;38.46;99717.97;4337894;32;33209;-90
2021/07/11 08:05:16;;;;;;;8.27;5.65;;;;;;;31.39;38.69;99712.28;4349839;32;33996;-90
2021/07/11 08:07:45;;;;;;;7.20;5.43;;;;;;;31.60;38.48;99706.91;4350079;32;34149;-90
2021/07/11 08:10:15;;;;;;;11.40;5.03;;;;;;;31.73;38.09;99705.69;4350744;32;34221;-91
2021/07/11 08:12:44;;;;;;;6.53;5.40;;;;;;;31.77;37.70;99711.63;4337384;32;33512;-88
2021/07/11 08:15:19;;;;;;;5.95;5.15;;;;;;;31.66;37.65;99714.44;4349958;32;34712;-90
2021/07/11 08:17:48;;;;;;;5.78;5.10;;;;;;;31.78;37.36;99710.66;4339231;32;34028;-90
2021/07/11 08:20:20;;;;;;;12.35;5.85;;;;;;;31.92;37.66;99712.97;4338048;32;33582;-92
2021/07/11 08:22:49;;;;;;;7.82;6.00;;;;;;;32.18;37.58;99708.81;4350308;32;33516;-92
2021/07/11 08:25:17;;;;;;;8.15;5.53;;;;;;;32.18;37.74;99706.13;4337902;32;33112;-91
2021/07/11 08:27:46;;;;;;;7.90;5.72;;;;;;;32.14;38.37;99709.22;4350259;32;33859;-92
2021/07/11 08:30:18;;;;;;;7.15;5.50;;;;;;;32.51;37.74;99712.97;4338433;32;34284;-89
2021/07/11 08:32:46;;;;;;;8.93;5.10;;;;;;;32.51;37.30;99713.84;4349634;32;33032;-90
2021/07/11 08:35:14;;;;;;;7.40;5.10;;;;;;;32.63;36.96;99712.72;4361874;32;33872;-89
2021/07/11 08:37:42;;;;;;;10.52;5.25;;;;;;;32.87;35.89;99706.03;4349382;32;34998;-89
2021/07/11 08:40:11;;;;;;;6.97;5.47;;;;;;;32.80;35.58;99704.91;4349555;32;34202;-89
2021/07/11 08:42:40;;;;;;;14.70;5.45;;;;;;;33.12;35.06;99702.75;4349430;32;33347;-89
2021/07/11 08:45:09;;;;;;;9.52;4.95;;;;;;;33.05;35.01;99699.78;4350206;32;34848;-88
2021/07/11 08:47:39;;;;;;;7.72;5.12;;;;;;;32.53;35.65;99703.78;4349358;32;36090;-89
2021/07/11 08:50:09;;;;;;;6.93;4.93;;;;;;;32.43;36.28;99715.47;4351512;32;33735;-90
2021/07/11 08:52:38;;;;;;;6.32;4.80;;;;;;;32.59;35.12;99705.06;4364017;32;34390;-90
2021/07/11 08:55:14;;;;;;;8.98;4.82;;;;;;;32.81;35.12;99706.63;4364212;32;33907;-90
2021/07/11 08:57:47;;;;;;;8.43;5.25;;;;;;;33.03;35.34;99699.09;4377525;32;34694;-89
2021/07/11 09:00:16;;;;;;;6.97;5.03;;;;;;;33.02;34.83;99704.63;4364566;32;34629;-88
2021/07/11 09:02:45;;;;;;;6.35;5.25;;;;;;;32.84;34.46;99687.44;4364593;32;33033;-89
2021/07/11 09:05:30;;;;;;;5.30;4.80;;;;;;;33.04;34.46;99690.03;4353137;32;34088;-91
2021/07/11 09:08:05;;;;;;;8.95;5.90;;;;;;;33.12;35.13;99687.44;4364206;32;34840;-90
2021/07/11 09:10:33;;;;;;;7.93;4.80;;;;;;;33.18;35.06;99688.69;4351413;32;34007;-89
2021/07/11 09:13:02;;;;;;;6.07;5.25;;;;;;;33.39;33.53;99673.16;4377498;32;33712;-90
2021/07/11 09:15:34;;;;;;;7.47;5.70;;;;;;;33.53;34.66;99686.19;4352326;32;34750;-89
2021/07/11 09:18:04;;;;;;;6.40;4.68;;;;;;;33.54;34.67;99685.22;4363915;32;35519;-90
2021/07/11 09:20:32;;;;;;;5.15;4.62;;;;;;;33.33;34.08;99680.00;4363988;32;33925;-89
2021/07/11 09:23:03;;;;;;;6.95;4.85;;;;;;;33.35;33.86;99677.16;4377523;32;33426;-90
2021/07/11 09:25:31;;;;;;;9.93;5.03;;;;;;;33.46;33.59;99676.13;4377770;32;34793;-89
2021/07/11 09:28:10;;;;;;;5.22;4.53;;;;;;;33.28;34.51;99674.19;4339978;32;33962;-89
2021/07/11 09:30:41;;;;;;;7.75;4.60;;;;;;;33.12;33.57;99675.78;4339972;32;33938;-90
2021/07/11 09:33:17;;;;;;;5.37;4.87;;;;;;;33.18;33.56;99664.44;4340227;32;32904;-89
2021/07/11 09:35:45;;;;;;;7.40;4.90;;;;;;;33.12;33.81;99668.56;4352267;32;33759;-89
2021/07/11 09:38:13;;;;;;;5.87;4.87;;;;;;;32.89;34.57;99671.72;4364142;32;33856;-93
2021/07/11 09:40:49;;;;;;;7.60;5.28;;;;;;;33.03;35.01;99671.28;4355107;32;33936;-92
2021/07/11 09:43:16;;;;;;;6.47;4.85;;;;;;;33.21;34.86;99670.38;4340491;32;33075;-89
2021/07/11 09:45:45;;;;;;;8.05;5.43;;;;;;;33.15;34.18;99673.66;4351959;32;34273;-88
2021/07/11 09:48:14;;;;;;;6.53;5.28;;;;;;;33.10;34.67;99667.88;4351867;32;34531;-90
2021/07/11 09:50:42;;;;;;;5.50;5.00;;;;;;;33.21;34.35;99665.00;4353415;32;34213;-91
2021/07/11 09:53:13;;;;;;;7.27;5.27;;;;;;;33.28;34.03;99666.09;4341368;32;33606;-92
2021/07/11 09:55:41;;;;;;;6.53;4.82;;;;;;;33.05;34.21;99666.59;4352684;32;33341;-91
2021/07/11 09:58:13;;;;;;;5.47;4.53;;;;;;;33.30;34.26;99661.44;4340406;32;34943;-90
2021/07/11 10:00:52;;;;;;;8.13;5.00;;;;;;;33.51;33.44;99655.81;4364993;32;34338;-93
2021/07/11 10:03:38;;;;;;;7.87;5.40;;;;;;;33.71;32.52;99662.00;4337347;33;33673;-92
2021/07/11 10:06:31;;;;;;;7.00;5.07;;;;;;;33.86;32.66;99655.94;4326946;33;34722;-87
2021/07/11 10:08:59;;;;;;;5.50;4.32;;;;;;;33.69;33.60;99654.03;4334209;33;34980;-87
2021/07/11 10:11:28;;;;;;;6.75;4.40;;;;;;;33.66;33.23;99665.09;4346071;33;34332;-87
2021/07/11 10:13:56;;;;;;;7.35;4.90;;;;;;;33.27;33.00;99655.47;4334010;33;33991;-89
2021/07/11 10:16:26;;;;;;;5.72;4.70;;;;;;;33.05;33.34;99663.91;4334121;33;33979;-89
2021/07/11 10:18:55;;;;;;;6.70;4.75;;;;;;;33.10;33.08;99656.25;4345827;33;34797;-89
2021/07/11 10:21:28;;;;;;;7.15;4.47;;;;;;;33.15;33.03;99659.34;4333980;33;33812;-89
2021/07/11 10:23:57;;;;;;;5.40;4.45;;;;;;;33.34;32.89;99654.75;4346078;33;33391;-89
2021/07/11 10:26:38;;;;;;;6.20;4.57;;;;;;;33.42;33.22;99656.69;4334077;33;34504;-89
2021/07/11 10:29:11;;;;;;;5.10;4.35;;;;;;;33.56;33.08;99658.94;4321567;33;34032;-90
2021/07/11 10:31:45;;;;;;;4.93;4.53;;;;;;;33.34;33.14;99651.19;4345988;33;33800;-88
2021/07/11 10:34:27;;;;;;;6.55;4.87;;;;;;;33.57;32.38;99655.22;4345860;33;34364;-87
2021/07/11 10:36:55;;;;;;;5.00;4.47;;;;;;;33.68;32.77;99646.97;4333562;33;34100;-87
2021/07/11 10:39:46;;;;;;;;;;;;;;;;;;;;;
2021/07/11 10:42:46;;;;;;;5.68;4.57;;;;;;;33.90;31.78;99638.44;4331230;33;35218;-90
2021/07/11 10:45:16;;;;;;;5.82;4.45;;;;;;;33.64;31.66;99629.34;4330606;33;33017;-90
2021/07/11 10:47:44;;;;;;;9.05;4.25;;;;;;;33.67;31.62;99623.66;4330856;33;33971;-90
2021/07/11 10:50:33;;;;;;;6.37;4.70;;;;;;;33.73;31.84;99628.47;4319478;33;34981;-91
2021/07/11 10:53:01;;;;;;;5.40;4.32;;;;;;;33.87;31.63;99617.16;4318885;33;34286;-89
2021/07/11 10:55:40;;;;;;;7.80;4.68;;;;;;;33.86;31.87;99626.25;4331321;33;33297;-91
2021/07/11 10:58:12;;;;;;;8.18;4.80;;;;;;;33.86;31.81;99623.56;4319893;33;34301;-91
2021/07/11 11:00:49;;;;;;;5.47;4.95;;;;;;;33.89;31.86;99622.41;4344063;33;35451;-96
2021/07/11 11:03:44;;;;;;;7.97;5.50;;;;;;;33.72;32.24;99617.81;4355526;32;34540;-94
2021/07/11 11:06:14;;;;;;;6.07;5.03;;;;;;;33.13;36.72;99618.22;4362857;32;32772;-91
2021/07/11 11:08:44;;;;;;;6.75;4.78;;;;;;;33.09;37.09;99616.84;4338473;32;33452;-91
2021/07/11 11:11:12;;;;;;;9.15;4.75;;;;;;;32.90;38.90;99619.56;4350710;32;35156;-90
2021/07/11 11:13:39;;;;;;;7.87;5.20;;;;;;;32.89;38.58;99626.78;4350834;32;34384;-92
2021/07/11 11:16:17;;;;;;;5.65;5.10;;;;;;;32.32;39.22;99622.28;4338325;32;33665;-89
2021/07/11 11:18:51;;;;;;;8.57;5.55;;;;;;;32.26;39.95;99616.62;4350305;32;34456;-89
2021/07/11 11:21:22;;;;;;;8.45;4.97;;;;;;;31.78;41.89;99616.56;4338661;32;34403;-91
2021/07/11 11:23:54;;;;;;;7.97;5.75;;;;;;;32.06;41.83;99618.47;4356724;32;33255;-89
2021/07/11 11:26:25;;;;;;;5.35;4.85;;;;;;;32.11;41.23;99632.34;4362931;32;33904;-92
2021/07/11 11:28:56;;;;;;;9.48;5.20;;;;;;;32.31;40.32;99622.41;4338601;32;34064;-93
2021/07/11 11:31:32;;;;;;;7.07;5.12;;;;;;;32.51;40.06;99622.31;4350933;32;35253;-91
2021/07/11 11:34:08;;;;;;;10.40;5.37;;;;;;;32.43;39.91;99624.81;4350678;32;33714;-91
2021/07/11 11:36:40;;;;;;;5.62;4.85;;;;;;;32.19;40.59;99637.84;4350463;32;33697;-89
2021/07/11 11:39:19;;;;;;;5.70;4.93;;;;;;;31.85;41.41;99641.91;4350217;32;33661;-91
2021/07/11 11:41:48;;;;;;;7.87;5.57;;;;;;;31.49;42.30;99647.88;4352169;32;34238;-88
2021/07/11 11:44:21;;;;;;;9.45;5.05;;;;;;;31.38;42.59;99646.94;4364590;32;35007;-90
2021/07/11 11:46:53;;;;;;;8.30;5.65;;;;;;;31.56;42.23;99635.59;4352443;32;32809;-90
2021/07/11 11:49:26;;;;;;;8.75;5.28;;;;;;;31.50;43.25;99628.09;4340041;32;33510;-88